sensor_id;sensor_type;location;lat;lon;timestamp;temperature;humidity
65231;DHT22;51813;40.666;16.602;2023-01-29T00:01:45;13.20;55.60
65231;DHT22;51813;40.666;16.602;2023-01-29T00:04:11;13.20;55.60
65231;DHT22;51813;40.666;16.602;2023-01-29T00:06:37;13.10;55.60
65231;DHT22;51813;40.666;16.602;2023-01-29T00:09:03;13.10;55.70
65231;DHT22;51813;40.666;16.602;2023-01-29T00:11:29;13.10;55.80
65231;DHT22;51813;40.666;16.602;2023-01-29T00:13:56;13.10;55.70
65231;DHT22;51813;40.666;16.602;2023-01-29T00:16:22;13.10;55.80
65231;DHT22;51813;40.666;16.602;2023-01-29T00:18:48;13.10;55.70
65231;DHT22;51813;40.666;16.602;2023-01-29T00:21:18;13.10;56.10
65231;DHT22;51813;40.666;16.602;2023-01-29T00:23:44;13.10;55.80
65231;DHT22;51813;40.666;16.602;2023-01-29T00:26:11;13.10;55.70
65231;DHT22;51813;40.666;16.602;2023-01-29T00:28:37;13.10;55.80
65231;DHT22;51813;40.666;16.602;2023-01-29T00:31:13;13.10;55.80
65231;DHT22;51813;40.666;16.602;2023-01-29T00:33:40;13.10;55.70
65231;DHT22;51813;40.666;16.602;2023-01-29T00:36:07;13.10;55.70
65231;DHT22;51813;40.666;16.602;2023-01-29T00:38:34;13.20;55.70
65231;DHT22;51813;40.666;16.602;2023-01-29T00:43:51;13.10;55.70
65231;DHT22;51813;40.666;16.602;2023-01-29T00:46:35;13.10;55.90
65231;DHT22;51813;40.666;16.602;2023-01-29T00:49:01;13.10;55.60
65231;DHT22;51813;40.666;16.602;2023-01-29T00:51:27;13.10;55.60
65231;DHT22;51813;40.666;16.602;2023-01-29T00:53:52;13.10;55.70
65231;DHT22;51813;40.666;16.602;2023-01-29T00:56:23;13.10;55.60
65231;DHT22;51813;40.666;16.602;2023-01-29T00:58:49;13.10;55.60
65231;DHT22;51813;40.666;16.602;2023-01-29T01:01:14;13.10;55.60
65231;DHT22;51813;40.666;16.602;2023-01-29T01:03:40;13.10;55.70
65231;DHT22;51813;40.666;16.602;2023-01-29T01:06:09;13.00;55.60
65231;DHT22;51813;40.666;16.602;2023-01-29T01:08:35;13.00;55.70
65231;DHT22;51813;40.666;16.602;2023-01-29T01:11:19;13.00;55.70
65231;DHT22;51813;40.666;16.602;2023-01-29T01:13:45;13.00;55.70
65231;DHT22;51813;40.666;16.602;2023-01-29T01:16:13;13.00;55.70
65231;DHT22;51813;40.666;16.602;2023-01-29T01:18:39;13.00;55.60
65231;DHT22;51813;40.666;16.602;2023-01-29T01:21:05;13.10;55.60
65231;DHT22;51813;40.666;16.602;2023-01-29T01:23:31;13.10;55.40
65231;DHT22;51813;40.666;16.602;2023-01-29T01:25:57;13.10;55.50
65231;DHT22;51813;40.666;16.602;2023-01-29T01:28:22;13.10;55.50
65231;DHT22;51813;40.666;16.602;2023-01-29T01:30:48;13.10;55.50
65231;DHT22;51813;40.666;16.602;2023-01-29T01:33:14;13.10;55.60
65231;DHT22;51813;40.666;16.602;2023-01-29T01:35:39;13.10;55.50
65231;DHT22;51813;40.666;16.602;2023-01-29T01:38:05;13.10;55.70
65231;DHT22;51813;40.666;16.602;2023-01-29T01:40:31;13.10;55.80
65231;DHT22;51813;40.666;16.602;2023-01-29T01:42:59;13.10;55.80
65231;DHT22;51813;40.666;16.602;2023-01-29T01:45:35;13.10;55.70
65231;DHT22;51813;40.666;16.602;2023-01-29T01:50:54;13.10;55.70
65231;DHT22;51813;40.666;16.602;2023-01-29T01:53:44;13.10;56.00
65231;DHT22;51813;40.666;16.602;2023-01-29T01:56:15;13.00;56.00
65231;DHT22;51813;40.666;16.602;2023-01-29T01:58:49;13.00;56.30
65231;DHT22;51813;40.666;16.602;2023-01-29T02:01:16;12.90;56.40
65231;DHT22;51813;40.666;16.602;2023-01-29T02:03:49;12.90;56.50
65231;DHT22;51813;40.666;16.602;2023-01-29T02:06:39;12.90;56.50
65231;DHT22;51813;40.666;16.602;2023-01-29T02:10:04;12.90;56.50
65231;DHT22;51813;40.666;16.602;2023-01-29T02:12:31;13.00;56.20
65231;DHT22;51813;40.666;16.602;2023-01-29T02:14:57;13.00;56.10
65231;DHT22;51813;40.666;16.602;2023-01-29T02:17:24;13.00;56.00
65231;DHT22;51813;40.666;16.602;2023-01-29T02:25:22;13.00;56.20
65231;DHT22;51813;40.666;16.602;2023-01-29T02:30:51;12.90;56.30
65231;DHT22;51813;40.666;16.602;2023-01-29T02:36:08;12.80;56.50
65231;DHT22;51813;40.666;16.602;2023-01-29T02:41:15;12.90;56.30
65231;DHT22;51813;40.666;16.602;2023-01-29T02:44:15;12.90;56.20
65231;DHT22;51813;40.666;16.602;2023-01-29T03:02:19;13.00;56.00
65231;DHT22;51813;40.666;16.602;2023-01-29T03:04:52;13.00;55.90
65231;DHT22;51813;40.666;16.602;2023-01-29T03:07:28;13.00;55.80
65231;DHT22;51813;40.666;16.602;2023-01-29T03:12:40;13.00;55.90
65231;DHT22;51813;40.666;16.602;2023-01-29T03:15:17;13.00;55.90
65231;DHT22;51813;40.666;16.602;2023-01-29T03:20:19;13.00;55.80
65231;DHT22;51813;40.666;16.602;2023-01-29T03:22:54;13.00;55.80
65231;DHT22;51813;40.666;16.602;2023-01-29T03:25:20;13.00;55.70
65231;DHT22;51813;40.666;16.602;2023-01-29T03:28:06;13.10;55.80
65231;DHT22;51813;40.666;16.602;2023-01-29T03:30:54;13.10;55.80
65231;DHT22;51813;40.666;16.602;2023-01-29T03:33:59;13.00;55.80
65231;DHT22;51813;40.666;16.602;2023-01-29T03:36:36;13.00;55.70
65231;DHT22;51813;40.666;16.602;2023-01-29T03:39:08;13.00;55.80
65231;DHT22;51813;40.666;16.602;2023-01-29T03:41:47;13.00;55.70
65231;DHT22;51813;40.666;16.602;2023-01-29T03:44:19;13.00;55.70
65231;DHT22;51813;40.666;16.602;2023-01-29T03:49:58;13.00;55.80
65231;DHT22;51813;40.666;16.602;2023-01-29T03:52:50;13.00;55.80
65231;DHT22;51813;40.666;16.602;2023-01-29T03:55:34;13.00;55.80
65231;DHT22;51813;40.666;16.602;2023-01-29T04:03:41;13.00;55.70
65231;DHT22;51813;40.666;16.602;2023-01-29T04:06:21;13.00;55.80
65231;DHT22;51813;40.666;16.602;2023-01-29T04:08:55;13.00;55.80
65231;DHT22;51813;40.666;16.602;2023-01-29T04:11:24;13.00;55.80
65231;DHT22;51813;40.666;16.602;2023-01-29T04:13:52;13.00;55.70
65231;DHT22;51813;40.666;16.602;2023-01-29T04:16:25;13.00;55.80
65231;DHT22;51813;40.666;16.602;2023-01-29T04:18:53;13.00;55.70
65231;DHT22;51813;40.666;16.602;2023-01-29T04:21:19;13.00;55.80
65231;DHT22;51813;40.666;16.602;2023-01-29T04:23:45;13.00;55.70
65231;DHT22;51813;40.666;16.602;2023-01-29T04:31:34;13.00;55.80
65231;DHT22;51813;40.666;16.602;2023-01-29T04:37:11;13.00;55.60
65231;DHT22;51813;40.666;16.602;2023-01-29T04:40:37;13.00;55.70
65231;DHT22;51813;40.666;16.602;2023-01-29T04:43:14;13.00;55.80
65231;DHT22;51813;40.666;16.602;2023-01-29T04:51:48;13.00;55.80
65231;DHT22;51813;40.666;16.602;2023-01-29T04:54:44;12.90;55.80
65231;DHT22;51813;40.666;16.602;2023-01-29T04:59:52;12.90;55.80
65231;DHT22;51813;40.666;16.602;2023-01-29T05:02:23;12.90;56.20
65231;DHT22;51813;40.666;16.602;2023-01-29T05:04:51;12.90;56.30
65231;DHT22;51813;40.666;16.602;2023-01-29T05:07:19;12.90;55.90
65231;DHT22;51813;40.666;16.602;2023-01-29T05:09:46;12.90;56.00
65231;DHT22;51813;40.666;16.602;2023-01-29T05:12:15;12.90;56.10
65231;DHT22;51813;40.666;16.602;2023-01-29T05:14:43;12.90;55.90
65231;DHT22;51813;40.666;16.602;2023-01-29T05:17:14;12.90;55.90
65231;DHT22;51813;40.666;16.602;2023-01-29T05:19:41;12.90;55.80
65231;DHT22;51813;40.666;16.602;2023-01-29T05:22:09;12.90;55.80
65231;DHT22;51813;40.666;16.602;2023-01-29T05:24:36;12.90;55.70
65231;DHT22;51813;40.666;16.602;2023-01-29T05:27:02;12.90;55.70
65231;DHT22;51813;40.666;16.602;2023-01-29T05:29:46;12.90;55.80
65231;DHT22;51813;40.666;16.602;2023-01-29T05:32:13;12.90;55.70
65231;DHT22;51813;40.666;16.602;2023-01-29T05:34:39;12.90;55.70
65231;DHT22;51813;40.666;16.602;2023-01-29T05:37:05;12.90;55.70
65231;DHT22;51813;40.666;16.602;2023-01-29T05:39:31;12.90;55.70
65231;DHT22;51813;40.666;16.602;2023-01-29T05:41:57;12.90;55.70
65231;DHT22;51813;40.666;16.602;2023-01-29T05:44:23;12.90;55.70
65231;DHT22;51813;40.666;16.602;2023-01-29T05:46:49;12.90;55.70
65231;DHT22;51813;40.666;16.602;2023-01-29T05:49:16;12.90;55.70
65231;DHT22;51813;40.666;16.602;2023-01-29T05:51:42;12.90;55.80
65231;DHT22;51813;40.666;16.602;2023-01-29T05:54:13;12.90;55.70
65231;DHT22;51813;40.666;16.602;2023-01-29T05:56:39;12.90;55.80
65231;DHT22;51813;40.666;16.602;2023-01-29T05:59:05;12.90;55.80
65231;DHT22;51813;40.666;16.602;2023-01-29T06:01:32;12.90;55.70
65231;DHT22;51813;40.666;16.602;2023-01-29T06:03:57;12.90;55.70
65231;DHT22;51813;40.666;16.602;2023-01-29T06:06:23;12.90;55.70
65231;DHT22;51813;40.666;16.602;2023-01-29T06:08:49;12.90;55.70
65231;DHT22;51813;40.666;16.602;2023-01-29T06:11:15;12.90;55.80
65231;DHT22;51813;40.666;16.602;2023-01-29T06:13:43;12.80;55.70
65231;DHT22;51813;40.666;16.602;2023-01-29T06:16:10;12.80;55.80
65231;DHT22;51813;40.666;16.602;2023-01-29T06:18:36;12.80;55.90
65231;DHT22;51813;40.666;16.602;2023-01-29T06:21:04;12.80;56.10
65231;DHT22;51813;40.666;16.602;2023-01-29T06:23:30;12.80;55.80
65231;DHT22;51813;40.666;16.602;2023-01-29T06:26:00;12.80;55.80
65231;DHT22;51813;40.666;16.602;2023-01-29T06:28:26;12.80;55.70
65231;DHT22;51813;40.666;16.602;2023-01-29T06:30:52;12.80;55.90
65231;DHT22;51813;40.666;16.602;2023-01-29T06:33:18;12.80;55.80
65231;DHT22;51813;40.666;16.602;2023-01-29T06:35:43;12.80;55.80
65231;DHT22;51813;40.666;16.602;2023-01-29T06:38:09;12.80;55.70
65231;DHT22;51813;40.666;16.602;2023-01-29T06:40:37;12.80;55.80
65231;DHT22;51813;40.666;16.602;2023-01-29T06:43:03;12.70;55.70
65231;DHT22;51813;40.666;16.602;2023-01-29T06:45:28;12.70;55.90
65231;DHT22;51813;40.666;16.602;2023-01-29T06:47:55;12.80;55.80
65231;DHT22;51813;40.666;16.602;2023-01-29T06:50:20;12.70;56.10
65231;DHT22;51813;40.666;16.602;2023-01-29T06:52:46;12.70;55.90
65231;DHT22;51813;40.666;16.602;2023-01-29T06:55:12;12.70;55.80
65231;DHT22;51813;40.666;16.602;2023-01-29T06:57:37;12.70;56.10
65231;DHT22;51813;40.666;16.602;2023-01-29T07:00:04;12.70;56.20
65231;DHT22;51813;40.666;16.602;2023-01-29T07:02:30;12.70;56.10
65231;DHT22;51813;40.666;16.602;2023-01-29T07:04:56;12.70;56.20
65231;DHT22;51813;40.666;16.602;2023-01-29T07:07:22;12.70;56.00
65231;DHT22;51813;40.666;16.602;2023-01-29T07:09:47;12.70;56.10
65231;DHT22;51813;40.666;16.602;2023-01-29T07:12:13;12.70;56.10
65231;DHT22;51813;40.666;16.602;2023-01-29T07:14:39;12.70;55.70
65231;DHT22;51813;40.666;16.602;2023-01-29T07:17:04;12.70;55.90
65231;DHT22;51813;40.666;16.602;2023-01-29T07:19:30;12.70;56.00
65231;DHT22;51813;40.666;16.602;2023-01-29T07:21:55;12.70;56.00
65231;DHT22;51813;40.666;16.602;2023-01-29T07:24:21;12.70;55.80
65231;DHT22;51813;40.666;16.602;2023-01-29T07:26:47;12.70;55.90
65231;DHT22;51813;40.666;16.602;2023-01-29T07:29:12;12.70;55.90
65231;DHT22;51813;40.666;16.602;2023-01-29T07:31:38;12.80;56.30
65231;DHT22;51813;40.666;16.602;2023-01-29T07:34:04;12.70;56.30
65231;DHT22;51813;40.666;16.602;2023-01-29T07:36:30;12.70;56.20
65231;DHT22;51813;40.666;16.602;2023-01-29T07:38:55;12.60;56.10
65231;DHT22;51813;40.666;16.602;2023-01-29T07:41:21;12.70;56.10
65231;DHT22;51813;40.666;16.602;2023-01-29T07:43:47;12.60;56.40
65231;DHT22;51813;40.666;16.602;2023-01-29T07:46:13;12.60;56.50
65231;DHT22;51813;40.666;16.602;2023-01-29T07:48:38;12.60;56.60
65231;DHT22;51813;40.666;16.602;2023-01-29T07:51:04;12.60;56.70
65231;DHT22;51813;40.666;16.602;2023-01-29T07:53:30;12.60;56.60
65231;DHT22;51813;40.666;16.602;2023-01-29T07:55:57;12.70;56.40
65231;DHT22;51813;40.666;16.602;2023-01-29T07:58:22;12.70;56.40
65231;DHT22;51813;40.666;16.602;2023-01-29T08:00:49;12.70;56.50
65231;DHT22;51813;40.666;16.602;2023-01-29T08:03:17;12.70;56.30
65231;DHT22;51813;40.666;16.602;2023-01-29T08:05:44;12.70;56.20
65231;DHT22;51813;40.666;16.602;2023-01-29T08:08:10;12.80;56.10
65231;DHT22;51813;40.666;16.602;2023-01-29T08:10:38;12.80;56.40
65231;DHT22;51813;40.666;16.602;2023-01-29T08:13:04;12.80;56.50
65231;DHT22;51813;40.666;16.602;2023-01-29T08:15:30;12.80;56.70
65231;DHT22;51813;40.666;16.602;2023-01-29T08:17:56;12.70;56.50
65231;DHT22;51813;40.666;16.602;2023-01-29T08:20:22;12.70;56.70
65231;DHT22;51813;40.666;16.602;2023-01-29T08:22:47;12.70;56.80
65231;DHT22;51813;40.666;16.602;2023-01-29T08:25:14;12.70;56.90
65231;DHT22;51813;40.666;16.602;2023-01-29T08:27:40;12.70;56.70
65231;DHT22;51813;40.666;16.602;2023-01-29T08:30:07;12.70;56.80
65231;DHT22;51813;40.666;16.602;2023-01-29T08:32:32;12.60;56.50
65231;DHT22;51813;40.666;16.602;2023-01-29T08:34:58;12.70;56.50
65231;DHT22;51813;40.666;16.602;2023-01-29T08:37:24;12.60;56.40
65231;DHT22;51813;40.666;16.602;2023-01-29T08:39:50;12.70;56.50
65231;DHT22;51813;40.666;16.602;2023-01-29T08:42:15;12.70;56.30
65231;DHT22;51813;40.666;16.602;2023-01-29T08:44:41;12.70;56.40
65231;DHT22;51813;40.666;16.602;2023-01-29T08:47:07;12.70;56.10
65231;DHT22;51813;40.666;16.602;2023-01-29T08:49:32;12.70;56.00
65231;DHT22;51813;40.666;16.602;2023-01-29T08:51:58;12.70;56.10
65231;DHT22;51813;40.666;16.602;2023-01-29T08:54:23;12.80;56.00
65231;DHT22;51813;40.666;16.602;2023-01-29T08:56:50;12.80;55.90
65231;DHT22;51813;40.666;16.602;2023-01-29T08:59:16;12.80;56.10
65231;DHT22;51813;40.666;16.602;2023-01-29T09:01:41;12.80;56.10
65231;DHT22;51813;40.666;16.602;2023-01-29T09:04:07;12.80;56.20
65231;DHT22;51813;40.666;16.602;2023-01-29T09:06:33;12.80;56.30
65231;DHT22;51813;40.666;16.602;2023-01-29T09:08:59;12.80;56.30
65231;DHT22;51813;40.666;16.602;2023-01-29T09:11:25;12.70;56.40
65231;DHT22;51813;40.666;16.602;2023-01-29T09:13:51;12.70;56.40
65231;DHT22;51813;40.666;16.602;2023-01-29T09:16:16;12.70;56.50
65231;DHT22;51813;40.666;16.602;2023-01-29T09:18:42;12.70;56.40
65231;DHT22;51813;40.666;16.602;2023-01-29T09:21:08;12.70;56.50
65231;DHT22;51813;40.666;16.602;2023-01-29T09:23:34;12.70;56.60
65231;DHT22;51813;40.666;16.602;2023-01-29T09:26:00;12.70;56.50
65231;DHT22;51813;40.666;16.602;2023-01-29T09:28:26;12.70;56.50
65231;DHT22;51813;40.666;16.602;2023-01-29T09:30:51;12.80;56.60
65231;DHT22;51813;40.666;16.602;2023-01-29T09:33:17;12.80;56.70
65231;DHT22;51813;40.666;16.602;2023-01-29T09:35:43;12.70;56.60
65231;DHT22;51813;40.666;16.602;2023-01-29T09:38:12;12.70;57.00
65231;DHT22;51813;40.666;16.602;2023-01-29T09:43:51;12.70;56.80
65231;DHT22;51813;40.666;16.602;2023-01-29T09:46:47;12.70;56.80
65231;DHT22;51813;40.666;16.602;2023-01-29T09:49:34;12.70;56.90
65231;DHT22;51813;40.666;16.602;2023-01-29T09:57:48;12.80;56.60
65231;DHT22;51813;40.666;16.602;2023-01-29T10:02:53;12.70;57.10
65231;DHT22;51813;40.666;16.602;2023-01-29T10:14:13;12.70;56.50
65231;DHT22;51813;40.666;16.602;2023-01-29T10:17:03;12.70;56.50
65231;DHT22;51813;40.666;16.602;2023-01-29T10:25:03;12.80;56.40
65231;DHT22;51813;40.666;16.602;2023-01-29T10:27:34;12.70;56.10
65231;DHT22;51813;40.666;16.602;2023-01-29T10:30:06;12.80;56.30
65231;DHT22;51813;40.666;16.602;2023-01-29T10:32:34;12.70;56.00
65231;DHT22;51813;40.666;16.602;2023-01-29T10:35:21;12.70;55.90
65231;DHT22;51813;40.666;16.602;2023-01-29T10:37:47;12.70;56.00
65231;DHT22;51813;40.666;16.602;2023-01-29T10:42:56;12.80;55.50
65231;DHT22;51813;40.666;16.602;2023-01-29T10:45:42;12.80;55.40
65231;DHT22;51813;40.666;16.602;2023-01-29T10:50:51;12.70;56.00
65231;DHT22;51813;40.666;16.602;2023-01-29T10:53:45;12.70;55.00
65231;DHT22;51813;40.666;16.602;2023-01-29T10:59:03;12.70;54.60
65231;DHT22;51813;40.666;16.602;2023-01-29T11:01:31;12.70;54.80
65231;DHT22;51813;40.666;16.602;2023-01-29T11:04:01;12.70;54.10
65231;DHT22;51813;40.666;16.602;2023-01-29T11:06:34;12.70;54.10
65231;DHT22;51813;40.666;16.602;2023-01-29T11:14:28;12.60;53.50
65231;DHT22;51813;40.666;16.602;2023-01-29T11:16:56;12.70;53.40
65231;DHT22;51813;40.666;16.602;2023-01-29T11:19:42;12.60;53.40
65231;DHT22;51813;40.666;16.602;2023-01-29T11:22:15;12.60;53.70
65231;DHT22;51813;40.666;16.602;2023-01-29T11:24:42;12.70;53.20
65231;DHT22;51813;40.666;16.602;2023-01-29T11:27:34;12.70;53.10
65231;DHT22;51813;40.666;16.602;2023-01-29T11:30:04;12.70;53.50
65231;DHT22;51813;40.666;16.602;2023-01-29T11:32:33;12.70;53.40
65231;DHT22;51813;40.666;16.602;2023-01-29T11:35:03;12.60;52.80
65231;DHT22;51813;40.666;16.602;2023-01-29T11:37:40;12.60;52.80
65231;DHT22;51813;40.666;16.602;2023-01-29T11:42:45;12.60;52.60
65231;DHT22;51813;40.666;16.602;2023-01-29T11:45:30;12.60;52.60
65231;DHT22;51813;40.666;16.602;2023-01-29T11:47:58;12.60;52.20
65231;DHT22;51813;40.666;16.602;2023-01-29T11:50:29;12.60;52.00
65231;DHT22;51813;40.666;16.602;2023-01-29T11:52:57;12.60;52.10
65231;DHT22;51813;40.666;16.602;2023-01-29T11:55:32;12.60;52.00
65231;DHT22;51813;40.666;16.602;2023-01-29T11:58:24;12.60;51.90
65231;DHT22;51813;40.666;16.602;2023-01-29T12:00:52;12.60;51.80
65231;DHT22;51813;40.666;16.602;2023-01-29T12:03:50;12.60;51.80
65231;DHT22;51813;40.666;16.602;2023-01-29T12:08:43;12.60;52.40
65231;DHT22;51813;40.666;16.602;2023-01-29T12:11:33;12.70;52.10
65231;DHT22;51813;40.666;16.602;2023-01-29T12:14:04;12.70;51.80
65231;DHT22;51813;40.666;16.602;2023-01-29T12:16:32;12.70;51.70
65231;DHT22;51813;40.666;16.602;2023-01-29T12:24:35;12.70;52.40
65231;DHT22;51813;40.666;16.602;2023-01-29T12:27:38;12.60;52.50
65231;DHT22;51813;40.666;16.602;2023-01-29T12:30:30;12.60;53.40
65231;DHT22;51813;40.666;16.602;2023-01-29T12:36:00;12.60;52.40
65231;DHT22;51813;40.666;16.602;2023-01-29T12:38:26;12.70;51.80
65231;DHT22;51813;40.666;16.602;2023-01-29T12:41:02;12.70;52.20
65231;DHT22;51813;40.666;16.602;2023-01-29T12:43:30;12.70;52.00
65231;DHT22;51813;40.666;16.602;2023-01-29T12:45:58;12.70;51.90
65231;DHT22;51813;40.666;16.602;2023-01-29T12:48:33;12.70;51.80
65231;DHT22;51813;40.666;16.602;2023-01-29T12:51:16;12.70;51.80
65231;DHT22;51813;40.666;16.602;2023-01-29T12:53:49;12.70;51.80
65231;DHT22;51813;40.666;16.602;2023-01-29T12:58:53;12.70;52.60
65231;DHT22;51813;40.666;16.602;2023-01-29T13:01:35;12.70;52.10
65231;DHT22;51813;40.666;16.602;2023-01-29T13:04:09;12.70;52.10
65231;DHT22;51813;40.666;16.602;2023-01-29T13:06:41;12.70;51.80
65231;DHT22;51813;40.666;16.602;2023-01-29T13:09:12;12.70;52.90
65231;DHT22;51813;40.666;16.602;2023-01-29T13:11:47;12.70;52.00
65231;DHT22;51813;40.666;16.602;2023-01-29T13:17:55;12.70;51.90
65231;DHT22;51813;40.666;16.602;2023-01-29T13:19:57;12.80;52.20
65231;DHT22;51813;40.666;16.602;2023-01-29T13:22:27;12.70;52.00
65231;DHT22;51813;40.666;16.602;2023-01-29T13:24:54;12.80;52.20
65231;DHT22;51813;40.666;16.602;2023-01-29T13:27:26;12.70;52.00
65231;DHT22;51813;40.666;16.602;2023-01-29T13:29:54;12.80;52.20
65231;DHT22;51813;40.666;16.602;2023-01-29T13:32:32;12.80;52.00
65231;DHT22;51813;40.666;16.602;2023-01-29T13:35:03;12.80;52.30
65231;DHT22;51813;40.666;16.602;2023-01-29T13:37:34;12.80;53.00
65231;DHT22;51813;40.666;16.602;2023-01-29T13:40:04;12.70;52.10
65231;DHT22;51813;40.666;16.602;2023-01-29T13:45:05;12.70;52.20
65231;DHT22;51813;40.666;16.602;2023-01-29T13:47:37;12.70;52.40
65231;DHT22;51813;40.666;16.602;2023-01-29T13:50:17;12.80;52.40
65231;DHT22;51813;40.666;16.602;2023-01-29T13:52:51;12.80;52.50
65231;DHT22;51813;40.666;16.602;2023-01-29T14:05:56;12.80;52.50
65231;DHT22;51813;40.666;16.602;2023-01-29T14:13:45;12.80;52.80
65231;DHT22;51813;40.666;16.602;2023-01-29T14:23:44;12.80;53.00
65231;DHT22;51813;40.666;16.602;2023-01-29T14:26:32;12.80;52.90
65231;DHT22;51813;40.666;16.602;2023-01-29T14:31:47;12.80;52.90
65231;DHT22;51813;40.666;16.602;2023-01-29T14:34:32;12.80;53.00
65231;DHT22;51813;40.666;16.602;2023-01-29T14:39:58;12.80;53.10
65231;DHT22;51813;40.666;16.602;2023-01-29T14:53:15;12.80;53.30
65231;DHT22;51813;40.666;16.602;2023-01-29T14:55:46;12.70;53.50
65231;DHT22;51813;40.666;16.602;2023-01-29T14:58:22;12.70;53.50
65231;DHT22;51813;40.666;16.602;2023-01-29T15:00:53;12.70;53.40
65231;DHT22;51813;40.666;16.602;2023-01-29T15:05:56;12.70;53.30
65231;DHT22;51813;40.666;16.602;2023-01-29T15:08:34;12.70;53.40
65231;DHT22;51813;40.666;16.602;2023-01-29T15:11:06;12.70;53.30
65231;DHT22;51813;40.666;16.602;2023-01-29T15:19:43;12.70;53.60
65231;DHT22;51813;40.666;16.602;2023-01-29T15:22:19;12.80;53.60
65231;DHT22;51813;40.666;16.602;2023-01-29T15:24:46;12.70;53.60
65231;DHT22;51813;40.666;16.602;2023-01-29T15:27:15;12.70;53.90
65231;DHT22;51813;40.666;16.602;2023-01-29T15:29:45;12.80;53.90
65231;DHT22;51813;40.666;16.602;2023-01-29T15:32:17;12.80;54.00
65231;DHT22;51813;40.666;16.602;2023-01-29T15:34:52;12.80;53.80
65231;DHT22;51813;40.666;16.602;2023-01-29T15:37:30;12.80;53.90
65231;DHT22;51813;40.666;16.602;2023-01-29T15:39:56;12.80;54.20
65231;DHT22;51813;40.666;16.602;2023-01-29T15:42:22;12.70;54.10
65231;DHT22;51813;40.666;16.602;2023-01-29T15:44:51;12.70;54.30
65231;DHT22;51813;40.666;16.602;2023-01-29T15:47:24;12.70;54.30
65231;DHT22;51813;40.666;16.602;2023-01-29T15:49:51;12.70;54.30
65231;DHT22;51813;40.666;16.602;2023-01-29T15:52:24;12.70;54.30
65231;DHT22;51813;40.666;16.602;2023-01-29T15:54:51;12.70;54.40
65231;DHT22;51813;40.666;16.602;2023-01-29T15:57:20;12.70;54.50
65231;DHT22;51813;40.666;16.602;2023-01-29T15:59:47;12.70;54.70
65231;DHT22;51813;40.666;16.602;2023-01-29T16:02:27;12.70;54.70
65231;DHT22;51813;40.666;16.602;2023-01-29T16:04:54;12.70;54.80
65231;DHT22;51813;40.666;16.602;2023-01-29T16:07:20;12.70;54.80
65231;DHT22;51813;40.666;16.602;2023-01-29T16:09:47;12.70;55.10
65231;DHT22;51813;40.666;16.602;2023-01-29T16:12:13;12.70;54.80
65231;DHT22;51813;40.666;16.602;2023-01-29T16:14:40;12.70;55.00
65231;DHT22;51813;40.666;16.602;2023-01-29T16:17:29;12.70;54.90
65231;DHT22;51813;40.666;16.602;2023-01-29T16:20:04;12.80;54.80
65231;DHT22;51813;40.666;16.602;2023-01-29T16:22:35;12.70;54.80
65231;DHT22;51813;40.666;16.602;2023-01-29T16:25:06;12.70;54.80
65231;DHT22;51813;40.666;16.602;2023-01-29T16:27:32;12.80;54.90
65231;DHT22;51813;40.666;16.602;2023-01-29T16:29:59;12.80;55.00
65231;DHT22;51813;40.666;16.602;2023-01-29T16:32:27;12.70;54.80
65231;DHT22;51813;40.666;16.602;2023-01-29T16:34:57;12.70;54.90
65231;DHT22;51813;40.666;16.602;2023-01-29T16:37:29;12.70;54.90
65231;DHT22;51813;40.666;16.602;2023-01-29T16:39:56;12.70;54.90
65231;DHT22;51813;40.666;16.602;2023-01-29T16:42:27;12.70;55.10
65231;DHT22;51813;40.666;16.602;2023-01-29T16:45:26;12.70;55.10
65231;DHT22;51813;40.666;16.602;2023-01-29T16:48:01;12.70;55.20
65231;DHT22;51813;40.666;16.602;2023-01-29T16:50:34;12.70;55.20
65231;DHT22;51813;40.666;16.602;2023-01-29T16:53:11;12.70;55.30
65231;DHT22;51813;40.666;16.602;2023-01-29T16:55:45;12.80;55.30
65231;DHT22;51813;40.666;16.602;2023-01-29T16:58:23;12.70;55.40
65231;DHT22;51813;40.666;16.602;2023-01-29T17:00:55;12.80;55.60
65231;DHT22;51813;40.666;16.602;2023-01-29T17:03:24;12.80;55.50
65231;DHT22;51813;40.666;16.602;2023-01-29T17:05:50;12.80;55.90
65231;DHT22;51813;40.666;16.602;2023-01-29T17:08:29;12.80;55.80
65231;DHT22;51813;40.666;16.602;2023-01-29T17:10:57;12.70;56.00
65231;DHT22;51813;40.666;16.602;2023-01-29T17:13:33;12.70;56.00
65231;DHT22;51813;40.666;16.602;2023-01-29T17:16:02;12.70;56.20
65231;DHT22;51813;40.666;16.602;2023-01-29T17:18:38;12.70;56.20
65231;DHT22;51813;40.666;16.602;2023-01-29T17:21:04;12.70;56.10
65231;DHT22;51813;40.666;16.602;2023-01-29T17:23:30;12.70;56.10
65231;DHT22;51813;40.666;16.602;2023-01-29T17:25:56;12.70;56.10
65231;DHT22;51813;40.666;16.602;2023-01-29T17:28:21;12.70;56.10
65231;DHT22;51813;40.666;16.602;2023-01-29T17:30:47;12.70;56.00
65231;DHT22;51813;40.666;16.602;2023-01-29T17:33:15;12.70;56.10
65231;DHT22;51813;40.666;16.602;2023-01-29T17:35:43;12.70;56.00
65231;DHT22;51813;40.666;16.602;2023-01-29T17:38:14;12.70;56.30
65231;DHT22;51813;40.666;16.602;2023-01-29T17:43:12;12.70;55.70
65231;DHT22;51813;40.666;16.602;2023-01-29T17:45:38;12.70;55.50
65231;DHT22;51813;40.666;16.602;2023-01-29T17:51:02;12.80;55.70
65231;DHT22;51813;40.666;16.602;2023-01-29T17:53:29;12.70;55.50
65231;DHT22;51813;40.666;16.602;2023-01-29T17:55:55;12.70;55.70
65231;DHT22;51813;40.666;16.602;2023-01-29T17:58:23;12.60;55.70
65231;DHT22;51813;40.666;16.602;2023-01-29T18:00:49;12.70;55.60
65231;DHT22;51813;40.666;16.602;2023-01-29T18:03:15;12.70;55.50
65231;DHT22;51813;40.666;16.602;2023-01-29T18:05:42;12.60;55.40
65231;DHT22;51813;40.666;16.602;2023-01-29T18:10:41;12.70;55.30
65231;DHT22;51813;40.666;16.602;2023-01-29T18:13:06;12.70;55.60
65231;DHT22;51813;40.666;16.602;2023-01-29T18:15:32;12.70;55.40
65231;DHT22;51813;40.666;16.602;2023-01-29T18:17:58;12.70;55.30
65231;DHT22;51813;40.666;16.602;2023-01-29T18:20:24;12.60;55.20
65231;DHT22;51813;40.666;16.602;2023-01-29T18:22:52;12.60;55.40
65231;DHT22;51813;40.666;16.602;2023-01-29T18:25:18;12.60;55.30
65231;DHT22;51813;40.666;16.602;2023-01-29T18:27:44;12.60;55.20
65231;DHT22;51813;40.666;16.602;2023-01-29T18:30:11;12.70;55.20
65231;DHT22;51813;40.666;16.602;2023-01-29T18:32:37;12.70;55.10
65231;DHT22;51813;40.666;16.602;2023-01-29T18:35:03;12.70;55.00
65231;DHT22;51813;40.666;16.602;2023-01-29T18:37:30;12.70;55.10
65231;DHT22;51813;40.666;16.602;2023-01-29T18:39:56;12.70;55.00